sensor_id;sensor_type;location;lat;lon;timestamp;P1;durP1;ratioP1;P2;durP2;ratioP2
55146;SDS011;41039;49.830;23.988;2022-10-19T00:01:28;11.57;;;8.15;;
55146;SDS011;41039;49.830;23.988;2022-10-19T00:03:54;12.05;;;8.15;;
55146;SDS011;41039;49.830;23.988;2022-10-19T00:06:20;15.63;;;8.70;;
55146;SDS011;41039;49.830;23.988;2022-10-19T00:08:56;13.20;;;9.15;;
55146;SDS011;41039;49.830;23.988;2022-10-19T00:11:21;12.13;;;8.88;;
55146;SDS011;41039;49.830;23.988;2022-10-19T00:13:47;14.02;;;9.30;;
55146;SDS011;41039;49.830;23.988;2022-10-19T00:16:13;15.00;;;9.52;;
55146;SDS011;41039;49.830;23.988;2022-10-19T00:18:39;14.13;;;10.23;;
55146;SDS011;41039;49.830;23.988;2022-10-19T00:21:06;17.23;;;9.90;;
55146;SDS011;41039;49.830;23.988;2022-10-19T00:23:31;13.48;;;9.85;;
55146;SDS011;41039;49.830;23.988;2022-10-19T00:25:57;18.85;;;11.45;;
55146;SDS011;41039;49.830;23.988;2022-10-19T00:28:23;16.88;;;11.27;;
55146;SDS011;41039;49.830;23.988;2022-10-19T00:30:48;15.90;;;11.43;;
55146;SDS011;41039;49.830;23.988;2022-10-19T00:33:13;14.82;;;10.65;;
55146;SDS011;41039;49.830;23.988;2022-10-19T00:35:44;13.02;;;9.60;;
55146;SDS011;41039;49.830;23.988;2022-10-19T00:38:12;14.10;;;9.85;;
55146;SDS011;41039;49.830;23.988;2022-10-19T00:40:38;13.55;;;9.32;;
55146;SDS011;41039;49.830;23.988;2022-10-19T00:43:07;11.48;;;8.38;;
55146;SDS011;41039;49.830;23.988;2022-10-19T00:45:33;13.07;;;8.95;;
55146;SDS011;41039;49.830;23.988;2022-10-19T00:47:58;12.80;;;8.57;;
55146;SDS011;41039;49.830;23.988;2022-10-19T00:50:24;14.05;;;8.10;;
55146;SDS011;41039;49.830;23.988;2022-10-19T00:52:49;9.75;;;7.53;;
55146;SDS011;41039;49.830;23.988;2022-10-19T00:55:14;15.55;;;9.40;;
55146;SDS011;41039;49.830;23.988;2022-10-19T00:57:40;12.48;;;8.90;;
55146;SDS011;41039;49.830;23.988;2022-10-19T01:00:06;13.05;;;8.90;;
55146;SDS011;41039;49.830;23.988;2022-10-19T01:02:31;12.05;;;8.57;;
55146;SDS011;41039;49.830;23.988;2022-10-19T01:04:57;12.23;;;8.27;;
55146;SDS011;41039;49.830;23.988;2022-10-19T01:07:23;9.77;;;7.70;;
55146;SDS011;41039;49.830;23.988;2022-10-19T01:09:49;8.90;;;7.35;;
55146;SDS011;41039;49.830;23.988;2022-10-19T01:12:29;11.15;;;7.65;;
55146;SDS011;41039;49.830;23.988;2022-10-19T01:32:22;7.65;;;4.30;;
55146;SDS011;41039;49.830;23.988;2022-10-19T01:35:05;6.13;;;4.30;;
55146;SDS011;41039;49.830;23.988;2022-10-19T01:37:36;6.20;;;3.50;;
55146;SDS011;41039;49.830;23.988;2022-10-19T01:45:01;4.80;;;3.17;;
55146;SDS011;41039;49.830;23.988;2022-10-19T01:47:50;4.72;;;2.60;;
55146;SDS011;41039;49.830;23.988;2022-10-19T01:50:15;4.50;;;2.50;;
55146;SDS011;41039;49.830;23.988;2022-10-19T01:52:40;3.47;;;2.13;;
55146;SDS011;41039;49.830;23.988;2022-10-19T01:55:07;3.85;;;2.05;;
55146;SDS011;41039;49.830;23.988;2022-10-19T01:57:34;3.15;;;1.77;;
55146;SDS011;41039;49.830;23.988;2022-10-19T02:00:02;3.58;;;1.98;;
55146;SDS011;41039;49.830;23.988;2022-10-19T02:02:31;5.22;;;1.92;;
55146;SDS011;41039;49.830;23.988;2022-10-19T02:04:58;3.10;;;1.67;;
55146;SDS011;41039;49.830;23.988;2022-10-19T02:07:24;2.95;;;1.73;;
55146;SDS011;41039;49.830;23.988;2022-10-19T02:09:49;2.67;;;1.80;;
55146;SDS011;41039;49.830;23.988;2022-10-19T02:12:14;2.38;;;1.38;;
55146;SDS011;41039;49.830;23.988;2022-10-19T02:14:45;3.38;;;1.70;;
55146;SDS011;41039;49.830;23.988;2022-10-19T02:17:12;2.45;;;1.48;;
55146;SDS011;41039;49.830;23.988;2022-10-19T02:19:38;1.92;;;1.10;;
55146;SDS011;41039;49.830;23.988;2022-10-19T02:22:04;3.72;;;1.27;;
55146;SDS011;41039;49.830;23.988;2022-10-19T02:24:29;2.03;;;1.30;;
55146;SDS011;41039;49.830;23.988;2022-10-19T02:26:54;2.75;;;1.70;;
55146;SDS011;41039;49.830;23.988;2022-10-19T02:29:20;2.88;;;1.60;;
55146;SDS011;41039;49.830;23.988;2022-10-19T02:31:46;3.83;;;1.52;;
55146;SDS011;41039;49.830;23.988;2022-10-19T02:34:11;3.75;;;1.63;;
55146;SDS011;41039;49.830;23.988;2022-10-19T02:36:37;3.35;;;1.65;;
55146;SDS011;41039;49.830;23.988;2022-10-19T02:39:02;3.10;;;1.35;;
55146;SDS011;41039;49.830;23.988;2022-10-19T02:41:32;2.75;;;1.40;;
55146;SDS011;41039;49.830;23.988;2022-10-19T02:44:06;2.53;;;1.77;;
55146;SDS011;41039;49.830;23.988;2022-10-19T02:46:38;3.88;;;1.77;;
55146;SDS011;41039;49.830;23.988;2022-10-19T02:49:05;2.63;;;1.48;;
55146;SDS011;41039;49.830;23.988;2022-10-19T02:51:35;2.70;;;1.60;;
55146;SDS011;41039;49.830;23.988;2022-10-19T02:54:00;4.25;;;1.50;;
55146;SDS011;41039;49.830;23.988;2022-10-19T02:56:26;2.60;;;1.55;;
55146;SDS011;41039;49.830;23.988;2022-10-19T02:58:51;2.28;;;1.25;;
55146;SDS011;41039;49.830;23.988;2022-10-19T03:01:16;3.35;;;1.48;;
55146;SDS011;41039;49.830;23.988;2022-10-19T03:03:42;3.38;;;1.60;;
55146;SDS011;41039;49.830;23.988;2022-10-19T03:06:07;2.60;;;1.70;;
55146;SDS011;41039;49.830;23.988;2022-10-19T03:08:32;3.30;;;1.92;;
55146;SDS011;41039;49.830;23.988;2022-10-19T03:10:58;3.08;;;2.00;;
55146;SDS011;41039;49.830;23.988;2022-10-19T03:13:23;3.17;;;1.67;;
55146;SDS011;41039;49.830;23.988;2022-10-19T03:15:48;3.40;;;1.50;;
55146;SDS011;41039;49.830;23.988;2022-10-19T03:18:14;2.55;;;1.45;;
55146;SDS011;41039;49.830;23.988;2022-10-19T03:20:39;3.85;;;1.65;;
55146;SDS011;41039;49.830;23.988;2022-10-19T03:23:04;2.22;;;1.35;;
55146;SDS011;41039;49.830;23.988;2022-10-19T03:25:30;2.30;;;1.38;;
55146;SDS011;41039;49.830;23.988;2022-10-19T03:27:55;2.83;;;1.70;;
55146;SDS011;41039;49.830;23.988;2022-10-19T03:30:20;2.70;;;1.65;;
55146;SDS011;41039;49.830;23.988;2022-10-19T03:32:45;3.03;;;1.65;;
55146;SDS011;41039;49.830;23.988;2022-10-19T03:35:11;3.50;;;1.95;;
55146;SDS011;41039;49.830;23.988;2022-10-19T03:37:36;4.15;;;2.60;;
55146;SDS011;41039;49.830;23.988;2022-10-19T03:40:01;4.10;;;2.22;;
55146;SDS011;41039;49.830;23.988;2022-10-19T03:42:26;6.22;;;2.40;;
55146;SDS011;41039;49.830;23.988;2022-10-19T03:44:52;4.55;;;2.83;;
55146;SDS011;41039;49.830;23.988;2022-10-19T03:47:17;3.78;;;2.45;;
55146;SDS011;41039;49.830;23.988;2022-10-19T03:49:42;4.38;;;2.33;;
55146;SDS011;41039;49.830;23.988;2022-10-19T03:52:08;4.40;;;2.72;;
55146;SDS011;41039;49.830;23.988;2022-10-19T03:54:34;4.13;;;2.63;;
55146;SDS011;41039;49.830;23.988;2022-10-19T03:56:59;3.40;;;2.45;;
55146;SDS011;41039;49.830;23.988;2022-10-19T03:59:24;3.30;;;2.03;;
55146;SDS011;41039;49.830;23.988;2022-10-19T04:01:50;3.65;;;2.20;;
55146;SDS011;41039;49.830;23.988;2022-10-19T04:04:16;3.28;;;2.13;;
55146;SDS011;41039;49.830;23.988;2022-10-19T04:06:42;5.63;;;3.17;;
55146;SDS011;41039;49.830;23.988;2022-10-19T04:09:07;6.80;;;3.67;;
55146;SDS011;41039;49.830;23.988;2022-10-19T04:11:33;8.75;;;3.10;;
55146;SDS011;41039;49.830;23.988;2022-10-19T04:13:58;8.02;;;3.17;;
55146;SDS011;41039;49.830;23.988;2022-10-19T04:16:24;5.57;;;3.13;;
55146;SDS011;41039;49.830;23.988;2022-10-19T04:18:50;7.25;;;3.35;;
55146;SDS011;41039;49.830;23.988;2022-10-19T04:21:19;4.82;;;2.58;;
55146;SDS011;41039;49.830;23.988;2022-10-19T04:23:45;4.93;;;2.60;;
55146;SDS011;41039;49.830;23.988;2022-10-19T04:26:11;3.45;;;2.38;;
55146;SDS011;41039;49.830;23.988;2022-10-19T04:28:36;4.68;;;2.88;;
55146;SDS011;41039;49.830;23.988;2022-10-19T04:31:02;3.38;;;1.90;;
55146;SDS011;41039;49.830;23.988;2022-10-19T04:33:27;3.08;;;2.00;;
55146;SDS011;41039;49.830;23.988;2022-10-19T04:36:02;3.17;;;2.00;;
55146;SDS011;41039;49.830;23.988;2022-10-19T04:38:28;3.45;;;2.25;;
55146;SDS011;41039;49.830;23.988;2022-10-19T04:40:53;6.18;;;3.80;;
55146;SDS011;41039;49.830;23.988;2022-10-19T04:43:19;5.97;;;4.30;;
55146;SDS011;41039;49.830;23.988;2022-10-19T04:45:45;9.43;;;5.78;;
55146;SDS011;41039;49.830;23.988;2022-10-19T04:48:10;9.27;;;6.00;;
55146;SDS011;41039;49.830;23.988;2022-10-19T04:50:35;8.90;;;5.53;;
55146;SDS011;41039;49.830;23.988;2022-10-19T04:53:01;8.05;;;4.97;;
55146;SDS011;41039;49.830;23.988;2022-10-19T04:55:26;6.03;;;4.18;;
55146;SDS011;41039;49.830;23.988;2022-10-19T04:57:51;5.38;;;3.42;;
55146;SDS011;41039;49.830;23.988;2022-10-19T05:00:16;4.22;;;3.42;;
55146;SDS011;41039;49.830;23.988;2022-10-19T05:02:42;4.65;;;3.08;;
55146;SDS011;41039;49.830;23.988;2022-10-19T05:05:08;5.82;;;3.65;;
55146;SDS011;41039;49.830;23.988;2022-10-19T05:07:33;5.50;;;3.53;;
55146;SDS011;41039;49.830;23.988;2022-10-19T05:09:59;5.00;;;3.47;;
55146;SDS011;41039;49.830;23.988;2022-10-19T05:12:24;5.43;;;4.00;;
55146;SDS011;41039;49.830;23.988;2022-10-19T05:14:49;4.40;;;3.45;;
55146;SDS011;41039;49.830;23.988;2022-10-19T05:17:14;4.25;;;3.35;;
55146;SDS011;41039;49.830;23.988;2022-10-19T05:19:40;6.22;;;4.68;;
55146;SDS011;41039;49.830;23.988;2022-10-19T05:22:05;6.80;;;3.90;;
55146;SDS011;41039;49.830;23.988;2022-10-19T05:24:30;5.00;;;3.40;;
55146;SDS011;41039;49.830;23.988;2022-10-19T05:26:56;5.45;;;4.03;;
55146;SDS011;41039;49.830;23.988;2022-10-19T05:29:21;5.63;;;3.85;;
55146;SDS011;41039;49.830;23.988;2022-10-19T05:31:48;6.28;;;4.70;;
55146;SDS011;41039;49.830;23.988;2022-10-19T05:34:13;5.65;;;4.20;;
55146;SDS011;41039;49.830;23.988;2022-10-19T05:36:39;5.63;;;3.85;;
55146;SDS011;41039;49.830;23.988;2022-10-19T05:41:30;7.13;;;4.15;;
55146;SDS011;41039;49.830;23.988;2022-10-19T05:43:56;6.80;;;5.38;;
55146;SDS011;41039;49.830;23.988;2022-10-19T05:46:21;6.97;;;4.75;;
55146;SDS011;41039;49.830;23.988;2022-10-19T05:48:47;10.65;;;4.93;;
55146;SDS011;41039;49.830;23.988;2022-10-19T05:51:13;7.63;;;4.22;;
55146;SDS011;41039;49.830;23.988;2022-10-19T05:53:39;6.78;;;4.18;;
55146;SDS011;41039;49.830;23.988;2022-10-19T05:56:05;6.18;;;4.05;;
55146;SDS011;41039;49.830;23.988;2022-10-19T05:58:30;6.70;;;4.70;;
55146;SDS011;41039;49.830;23.988;2022-10-19T06:00:57;6.00;;;4.20;;
55146;SDS011;41039;49.830;23.988;2022-10-19T06:03:23;6.38;;;4.28;;
55146;SDS011;41039;49.830;23.988;2022-10-19T06:05:49;7.13;;;4.65;;
55146;SDS011;41039;49.830;23.988;2022-10-19T06:08:14;6.60;;;5.20;;
55146;SDS011;41039;49.830;23.988;2022-10-19T06:10:40;6.90;;;4.75;;
55146;SDS011;41039;49.830;23.988;2022-10-19T06:13:05;8.98;;;4.82;;
55146;SDS011;41039;49.830;23.988;2022-10-19T06:15:33;7.75;;;5.10;;
55146;SDS011;41039;49.830;23.988;2022-10-19T06:18:00;11.23;;;5.30;;
55146;SDS011;41039;49.830;23.988;2022-10-19T06:20:25;6.82;;;5.28;;
55146;SDS011;41039;49.830;23.988;2022-10-19T06:22:53;8.30;;;5.40;;
55146;SDS011;41039;49.830;23.988;2022-10-19T06:25:18;8.85;;;5.53;;
55146;SDS011;41039;49.830;23.988;2022-10-19T06:27:43;7.53;;;5.10;;
55146;SDS011;41039;49.830;23.988;2022-10-19T06:30:09;7.55;;;4.63;;
55146;SDS011;41039;49.830;23.988;2022-10-19T06:32:34;6.57;;;4.38;;
55146;SDS011;41039;49.830;23.988;2022-10-19T06:34:59;6.28;;;4.10;;
55146;SDS011;41039;49.830;23.988;2022-10-19T06:37:24;6.35;;;4.30;;
55146;SDS011;41039;49.830;23.988;2022-10-19T06:39:50;4.85;;;3.75;;
55146;SDS011;41039;49.830;23.988;2022-10-19T06:42:15;5.10;;;3.78;;
55146;SDS011;41039;49.830;23.988;2022-10-19T06:44:40;6.00;;;3.92;;
55146;SDS011;41039;49.830;23.988;2022-10-19T06:47:05;5.25;;;3.28;;
55146;SDS011;41039;49.830;23.988;2022-10-19T06:49:31;5.53;;;3.28;;
55146;SDS011;41039;49.830;23.988;2022-10-19T06:51:56;4.25;;;2.97;;
55146;SDS011;41039;49.830;23.988;2022-10-19T06:54:21;3.95;;;3.00;;
55146;SDS011;41039;49.830;23.988;2022-10-19T06:56:49;4.97;;;3.15;;
55146;SDS011;41039;49.830;23.988;2022-10-19T06:59:14;4.47;;;3.10;;
55146;SDS011;41039;49.830;23.988;2022-10-19T07:01:41;5.15;;;3.25;;
55146;SDS011;41039;49.830;23.988;2022-10-19T07:04:06;3.85;;;2.78;;
55146;SDS011;41039;49.830;23.988;2022-10-19T07:06:32;5.38;;;3.65;;
55146;SDS011;41039;49.830;23.988;2022-10-19T07:08:57;4.32;;;3.20;;
55146;SDS011;41039;49.830;23.988;2022-10-19T07:11:22;6.40;;;3.80;;
55146;SDS011;41039;49.830;23.988;2022-10-19T07:13:47;5.13;;;3.10;;
55146;SDS011;41039;49.830;23.988;2022-10-19T07:16:13;4.45;;;2.88;;
55146;SDS011;41039;49.830;23.988;2022-10-19T07:18:39;4.80;;;2.70;;
55146;SDS011;41039;49.830;23.988;2022-10-19T07:21:07;5.63;;;3.15;;
55146;SDS011;41039;49.830;23.988;2022-10-19T07:23:33;6.15;;;3.13;;
55146;SDS011;41039;49.830;23.988;2022-10-19T07:26:02;8.57;;;4.70;;
55146;SDS011;41039;49.830;23.988;2022-10-19T07:28:28;5.25;;;2.85;;
55146;SDS011;41039;49.830;23.988;2022-10-19T07:30:53;4.57;;;2.90;;
55146;SDS011;41039;49.830;23.988;2022-10-19T07:33:19;5.75;;;3.17;;
55146;SDS011;41039;49.830;23.988;2022-10-19T07:35:44;6.20;;;3.13;;
55146;SDS011;41039;49.830;23.988;2022-10-19T07:38:09;6.65;;;3.28;;
55146;SDS011;41039;49.830;23.988;2022-10-19T07:40:35;5.18;;;3.13;;
55146;SDS011;41039;49.830;23.988;2022-10-19T07:43:00;7.25;;;3.40;;
55146;SDS011;41039;49.830;23.988;2022-10-19T07:45:26;5.60;;;3.13;;
55146;SDS011;41039;49.830;23.988;2022-10-19T07:47:51;4.82;;;2.70;;
55146;SDS011;41039;49.830;23.988;2022-10-19T07:50:16;5.43;;;2.60;;
55146;SDS011;41039;49.830;23.988;2022-10-19T07:52:41;5.95;;;3.10;;
55146;SDS011;41039;49.830;23.988;2022-10-19T07:55:07;6.03;;;2.75;;
55146;SDS011;41039;49.830;23.988;2022-10-19T07:57:32;4.47;;;2.90;;
55146;SDS011;41039;49.830;23.988;2022-10-19T07:59:57;7.88;;;3.15;;
55146;SDS011;41039;49.830;23.988;2022-10-19T08:02:23;5.47;;;2.70;;
55146;SDS011;41039;49.830;23.988;2022-10-19T08:04:48;6.00;;;2.83;;
55146;SDS011;41039;49.830;23.988;2022-10-19T08:07:13;5.75;;;2.72;;
55146;SDS011;41039;49.830;23.988;2022-10-19T08:09:38;5.38;;;2.50;;
55146;SDS011;41039;49.830;23.988;2022-10-19T08:12:04;5.05;;;2.80;;
55146;SDS011;41039;49.830;23.988;2022-10-19T08:14:30;4.63;;;3.03;;
55146;SDS011;41039;49.830;23.988;2022-10-19T08:16:55;6.45;;;2.80;;
55146;SDS011;41039;49.830;23.988;2022-10-19T08:19:20;5.30;;;2.78;;
55146;SDS011;41039;49.830;23.988;2022-10-19T08:21:46;5.78;;;2.65;;
55146;SDS011;41039;49.830;23.988;2022-10-19T08:24:12;6.45;;;2.63;;
55146;SDS011;41039;49.830;23.988;2022-10-19T08:26:38;5.65;;;2.22;;
55146;SDS011;41039;49.830;23.988;2022-10-19T08:29:10;5.57;;;1.70;;
55146;SDS011;41039;49.830;23.988;2022-10-19T08:31:36;12.27;;;2.10;;
55146;SDS011;41039;49.830;23.988;2022-10-19T08:34:02;3.70;;;1.80;;
55146;SDS011;41039;49.830;23.988;2022-10-19T08:36:27;7.63;;;2.08;;
55146;SDS011;41039;49.830;23.988;2022-10-19T08:38:55;8.40;;;2.70;;
55146;SDS011;41039;49.830;23.988;2022-10-19T08:43:55;3.70;;;1.83;;
55146;SDS011;41039;49.830;23.988;2022-10-19T08:46:27;2.20;;;1.30;;
55146;SDS011;41039;49.830;23.988;2022-10-19T08:48:54;5.88;;;1.73;;
55146;SDS011;41039;49.830;23.988;2022-10-19T08:51:19;3.95;;;1.83;;
55146;SDS011;41039;49.830;23.988;2022-10-19T09:09:36;4.85;;;1.83;;
55146;SDS011;41039;49.830;23.988;2022-10-19T09:12:04;8.23;;;2.03;;
55146;SDS011;41039;49.830;23.988;2022-10-19T09:16:58;5.28;;;1.90;;
55146;SDS011;41039;49.830;23.988;2022-10-19T09:19:24;5.43;;;1.83;;
55146;SDS011;41039;49.830;23.988;2022-10-19T09:21:57;5.38;;;1.77;;
55146;SDS011;41039;49.830;23.988;2022-10-19T09:26:53;6.70;;;2.17;;
55146;SDS011;41039;49.830;23.988;2022-10-19T09:29:27;5.60;;;2.03;;
55146;SDS011;41039;49.830;23.988;2022-10-19T09:31:58;6.30;;;1.65;;
55146;SDS011;41039;49.830;23.988;2022-10-19T09:34:24;6.00;;;2.13;;
55146;SDS011;41039;49.830;23.988;2022-10-19T09:36:54;3.38;;;1.60;;
55146;SDS011;41039;49.830;23.988;2022-10-19T09:39:21;6.97;;;1.88;;
55146;SDS011;41039;49.830;23.988;2022-10-19T09:41:56;6.78;;;1.65;;
55146;SDS011;41039;49.830;23.988;2022-10-19T09:44:22;3.95;;;1.83;;
55146;SDS011;41039;49.830;23.988;2022-10-19T09:46:53;4.18;;;1.35;;
55146;SDS011;41039;49.830;23.988;2022-10-19T09:52:04;7.93;;;1.70;;
55146;SDS011;41039;49.830;23.988;2022-10-19T09:54:33;4.38;;;1.45;;
55146;SDS011;41039;49.830;23.988;2022-10-19T09:56:59;7.32;;;1.67;;
55146;SDS011;41039;49.830;23.988;2022-10-19T09:59:28;6.43;;;1.88;;
55146;SDS011;41039;49.830;23.988;2022-10-19T10:04:37;5.25;;;2.38;;
55146;SDS011;41039;49.830;23.988;2022-10-19T10:07:03;9.05;;;3.50;;
55146;SDS011;41039;49.830;23.988;2022-10-19T10:09:28;6.63;;;1.92;;
55146;SDS011;41039;49.830;23.988;2022-10-19T10:11:55;7.43;;;3.28;;
55146;SDS011;41039;49.830;23.988;2022-10-19T10:14:42;6.32;;;3.10;;
55146;SDS011;41039;49.830;23.988;2022-10-19T10:17:11;4.32;;;1.70;;
55146;SDS011;41039;49.830;23.988;2022-10-19T10:19:47;5.22;;;1.38;;
55146;SDS011;41039;49.830;23.988;2022-10-19T10:22:21;6.47;;;2.25;;
55146;SDS011;41039;49.830;23.988;2022-10-19T10:24:51;9.77;;;3.50;;
55146;SDS011;41039;49.830;23.988;2022-10-19T10:27:36;2.92;;;1.35;;
55146;SDS011;41039;49.830;23.988;2022-10-19T10:30:07;3.40;;;1.75;;
55146;SDS011;41039;49.830;23.988;2022-10-19T10:32:35;6.28;;;1.80;;
55146;SDS011;41039;49.830;23.988;2022-10-19T10:35:02;8.57;;;2.97;;
55146;SDS011;41039;49.830;23.988;2022-10-19T10:37:29;6.80;;;2.58;;
55146;SDS011;41039;49.830;23.988;2022-10-19T10:39:55;6.90;;;2.65;;
55146;SDS011;41039;49.830;23.988;2022-10-19T10:42:25;12.65;;;3.30;;
55146;SDS011;41039;49.830;23.988;2022-10-19T10:44:52;9.23;;;2.75;;
55146;SDS011;41039;49.830;23.988;2022-10-19T10:47:20;4.93;;;2.17;;
55146;SDS011;41039;49.830;23.988;2022-10-19T10:49:56;5.72;;;1.75;;
55146;SDS011;41039;49.830;23.988;2022-10-19T10:52:22;9.77;;;2.10;;
55146;SDS011;41039;49.830;23.988;2022-10-19T10:57:26;8.02;;;2.47;;
55146;SDS011;41039;49.830;23.988;2022-10-19T11:04:47;5.38;;;1.25;;
55146;SDS011;41039;49.830;23.988;2022-10-19T11:07:19;4.00;;;1.17;;
55146;SDS011;41039;49.830;23.988;2022-10-19T11:09:55;4.05;;;1.20;;
55146;SDS011;41039;49.830;23.988;2022-10-19T11:18:26;4.13;;;1.73;;
55146;SDS011;41039;49.830;23.988;2022-10-19T11:20:32;7.72;;;1.50;;
55146;SDS011;41039;49.830;23.988;2022-10-19T11:28:14;6.27;;;1.40;;
55146;SDS011;41039;49.830;23.988;2022-10-19T11:31:04;10.45;;;1.90;;
55146;SDS011;41039;49.830;23.988;2022-10-19T11:33:54;5.60;;;1.67;;
55146;SDS011;41039;49.830;23.988;2022-10-19T11:52:13;8.57;;;1.92;;
55146;SDS011;41039;49.830;23.988;2022-10-19T11:57:15;2.28;;;1.10;;
55146;SDS011;41039;49.830;23.988;2022-10-19T12:04:44;9.52;;;3.53;;
55146;SDS011;41039;49.830;23.988;2022-10-19T12:09:46;5.13;;;1.58;;
55146;SDS011;41039;49.830;23.988;2022-10-19T12:15:02;5.95;;;1.70;;
55146;SDS011;41039;49.830;23.988;2022-10-19T12:17:30;6.03;;;1.65;;
55146;SDS011;41039;49.830;23.988;2022-10-19T12:19:57;6.32;;;1.52;;
55146;SDS011;41039;49.830;23.988;2022-10-19T12:22:25;4.22;;;1.58;;
55146;SDS011;41039;49.830;23.988;2022-10-19T12:24:52;6.13;;;1.08;;
55146;SDS011;41039;49.830;23.988;2022-10-19T12:27:22;8.05;;;1.70;;
55146;SDS011;41039;49.830;23.988;2022-10-19T12:29:49;4.00;;;1.65;;
55146;SDS011;41039;49.830;23.988;2022-10-19T12:32:15;3.03;;;1.02;;
55146;SDS011;41039;49.830;23.988;2022-10-19T12:35:03;5.45;;;1.52;;
55146;SDS011;41039;49.830;23.988;2022-10-19T12:55:59;5.82;;;1.63;;
55146;SDS011;41039;49.830;23.988;2022-10-19T12:58:33;3.30;;;1.17;;
55146;SDS011;41039;49.830;23.988;2022-10-19T13:00:59;3.00;;;1.40;;
55146;SDS011;41039;49.830;23.988;2022-10-19T13:03:35;6.85;;;3.08;;
55146;SDS011;41039;49.830;23.988;2022-10-19T13:06:11;6.25;;;1.63;;
55146;SDS011;41039;49.830;23.988;2022-10-19T13:08:41;6.00;;;1.70;;
55146;SDS011;41039;49.830;23.988;2022-10-19T13:11:08;5.85;;;1.88;;
55146;SDS011;41039;49.830;23.988;2022-10-19T13:19:04;4.60;;;1.40;;
55146;SDS011;41039;49.830;23.988;2022-10-19T13:21:44;6.70;;;1.80;;
55146;SDS011;41039;49.830;23.988;2022-10-19T13:31:53;5.07;;;1.30;;
55146;SDS011;41039;49.830;23.988;2022-10-19T13:34:18;5.10;;;1.10;;
55146;SDS011;41039;49.830;23.988;2022-10-19T13:36:59;6.35;;;1.30;;
55146;SDS011;41039;49.830;23.988;2022-10-19T13:39:26;2.45;;;1.08;;
55146;SDS011;41039;49.830;23.988;2022-10-19T13:41:51;3.55;;;1.40;;
55146;SDS011;41039;49.830;23.988;2022-10-19T13:44:18;10.98;;;3.08;;
55146;SDS011;41039;49.830;23.988;2022-10-19T13:46:50;7.80;;;2.15;;
55146;SDS011;41039;49.830;23.988;2022-10-19T14:04:54;8.13;;;2.20;;
55146;SDS011;41039;49.830;23.988;2022-10-19T14:07:25;4.57;;;1.92;;
55146;SDS011;41039;49.830;23.988;2022-10-19T14:09:59;6.75;;;2.05;;
55146;SDS011;41039;49.830;23.988;2022-10-19T14:12:26;3.25;;;1.92;;
55146;SDS011;41039;49.830;23.988;2022-10-19T14:14:53;5.45;;;2.17;;
55146;SDS011;41039;49.830;23.988;2022-10-19T14:17:19;4.57;;;2.00;;
55146;SDS011;41039;49.830;23.988;2022-10-19T14:19:46;4.40;;;2.17;;
55146;SDS011;41039;49.830;23.988;2022-10-19T14:24:49;6.18;;;2.30;;
55146;SDS011;41039;49.830;23.988;2022-10-19T14:27:16;6.18;;;2.67;;
55146;SDS011;41039;49.830;23.988;2022-10-19T14:29:46;4.57;;;2.50;;
55146;SDS011;41039;49.830;23.988;2022-10-19T14:32:12;6.43;;;2.35;;
55146;SDS011;41039;49.830;23.988;2022-10-19T14:34:38;11.35;;;2.65;;
55146;SDS011;41039;49.830;23.988;2022-10-19T14:37:04;7.55;;;2.90;;
55146;SDS011;41039;49.830;23.988;2022-10-19T14:39:30;10.07;;;4.38;;
55146;SDS011;41039;49.830;23.988;2022-10-19T14:41:56;12.48;;;4.18;;
55146;SDS011;41039;49.830;23.988;2022-10-19T14:46:55;9.85;;;4.03;;
55146;SDS011;41039;49.830;23.988;2022-10-19T14:49:24;9.77;;;3.20;;
55146;SDS011;41039;49.830;23.988;2022-10-19T14:51:57;9.32;;;3.20;;
55146;SDS011;41039;49.830;23.988;2022-10-19T14:59:23;8.57;;;5.00;;
55146;SDS011;41039;49.830;23.988;2022-10-19T15:01:49;8.52;;;4.50;;
55146;SDS011;41039;49.830;23.988;2022-10-19T15:04:26;8.60;;;3.72;;
55146;SDS011;41039;49.830;23.988;2022-10-19T15:06:53;7.88;;;3.28;;
55146;SDS011;41039;49.830;23.988;2022-10-19T15:09:25;9.25;;;2.90;;
55146;SDS011;41039;49.830;23.988;2022-10-19T15:11:51;6.50;;;3.97;;
55146;SDS011;41039;49.830;23.988;2022-10-19T15:14:19;8.75;;;4.07;;
55146;SDS011;41039;49.830;23.988;2022-10-19T15:17:01;10.68;;;4.30;;
55146;SDS011;41039;49.830;23.988;2022-10-19T15:19:27;8.65;;;3.05;;
55146;SDS011;41039;49.830;23.988;2022-10-19T15:24:38;10.50;;;6.35;;
55146;SDS011;41039;49.830;23.988;2022-10-19T15:27:08;16.55;;;7.28;;
55146;SDS011;41039;49.830;23.988;2022-10-19T15:29:34;14.40;;;7.57;;
55146;SDS011;41039;49.830;23.988;2022-10-19T15:32:13;13.77;;;7.68;;
55146;SDS011;41039;49.830;23.988;2022-10-19T15:34:38;12.18;;;7.45;;
55146;SDS011;41039;49.830;23.988;2022-10-19T15:37:05;10.45;;;6.20;;
55146;SDS011;41039;49.830;23.988;2022-10-19T15:39:38;10.70;;;5.50;;
55146;SDS011;41039;49.830;23.988;2022-10-19T15:42:22;9.45;;;4.93;;
55146;SDS011;41039;49.830;23.988;2022-10-19T15:44:55;7.97;;;4.20;;
55146;SDS011;41039;49.830;23.988;2022-10-19T15:47:21;8.43;;;3.90;;
55146;SDS011;41039;49.830;23.988;2022-10-19T15:49:51;6.72;;;4.07;;
55146;SDS011;41039;49.830;23.988;2022-10-19T15:52:17;6.70;;;3.95;;
55146;SDS011;41039;49.830;23.988;2022-10-19T15:54:46;8.32;;;4.78;;
55146;SDS011;41039;49.830;23.988;2022-10-19T15:57:31;5.90;;;3.60;;
55146;SDS011;41039;49.830;23.988;2022-10-19T15:59:58;5.75;;;3.47;;
55146;SDS011;41039;49.830;23.988;2022-10-19T16:02:23;9.90;;;4.68;;
55146;SDS011;41039;49.830;23.988;2022-10-19T16:04:52;9.35;;;5.63;;
55146;SDS011;41039;49.830;23.988;2022-10-19T16:07:26;12.48;;;7.32;;
55146;SDS011;41039;49.830;23.988;2022-10-19T16:09:52;10.98;;;5.07;;
55146;SDS011;41039;49.830;23.988;2022-10-19T16:12:18;7.20;;;4.25;;
55146;SDS011;41039;49.830;23.988;2022-10-19T16:14:43;5.95;;;3.60;;
55146;SDS011;41039;49.830;23.988;2022-10-19T16:17:10;5.32;;;3.30;;
55146;SDS011;41039;49.830;23.988;2022-10-19T16:19:37;7.55;;;4.50;;
55146;SDS011;41039;49.830;23.988;2022-10-19T16:22:02;7.22;;;4.13;;
55146;SDS011;41039;49.830;23.988;2022-10-19T16:24:28;5.97;;;3.30;;
55146;SDS011;41039;49.830;23.988;2022-10-19T16:26:53;6.88;;;3.20;;
55146;SDS011;41039;49.830;23.988;2022-10-19T16:29:18;8.73;;;3.47;;
55146;SDS011;41039;49.830;23.988;2022-10-19T16:31:43;6.00;;;3.03;;
55146;SDS011;41039;49.830;23.988;2022-10-19T16:34:09;5.20;;;2.80;;
55146;SDS011;41039;49.830;23.988;2022-10-19T16:36:34;4.78;;;3.17;;
55146;SDS011;41039;49.830;23.988;2022-10-19T16:38:59;3.53;;;2.30;;
55146;SDS011;41039;49.830;23.988;2022-10-19T16:41:25;3.95;;;2.10;;
55146;SDS011;41039;49.830;23.988;2022-10-19T16:43:53;10.45;;;3.47;;
55146;SDS011;41039;49.830;23.988;2022-10-19T16:46:22;3.83;;;2.45;;
55146;SDS011;41039;49.830;23.988;2022-10-19T16:48:48;4.03;;;1.50;;
55146;SDS011;41039;49.830;23.988;2022-10-19T16:51:16;4.32;;;1.52;;
55146;SDS011;41039;49.830;23.988;2022-10-19T16:53:42;6.65;;;1.50;;
55146;SDS011;41039;49.830;23.988;2022-10-19T16:56:09;9.95;;;8.05;;
55146;SDS011;41039;49.830;23.988;2022-10-19T16:58:35;10.55;;;3.03;;
55146;SDS011;41039;49.830;23.988;2022-10-19T17:01:06;4.45;;;2.00;;
55146;SDS011;41039;49.830;23.988;2022-10-19T17:03:32;2.55;;;1.50;;
55146;SDS011;41039;49.830;23.988;2022-10-19T17:05:57;5.40;;;2.00;;
55146;SDS011;41039;49.830;23.988;2022-10-19T17:08:22;3.38;;;1.70;;
55146;SDS011;41039;49.830;23.988;2022-10-19T17:10:47;3.95;;;1.75;;
55146;SDS011;41039;49.830;23.988;2022-10-19T17:13:13;3.67;;;2.28;;
55146;SDS011;41039;49.830;23.988;2022-10-19T17:15:38;6.78;;;2.92;;